sensor_id;sensor_type;location;lat;lon;timestamp;P1;durP1;ratioP1;P2;durP2;ratioP2
33579;SDS011;19909;43.644;-79.438;2023-07-31T00:01:06;1.65;;;1.23;;
33579;SDS011;19909;43.644;-79.438;2023-07-31T00:03:32;1.02;;;0.93;;
33579;SDS011;19909;43.644;-79.438;2023-07-31T00:05:58;1.25;;;1.02;;
33579;SDS011;19909;43.644;-79.438;2023-07-31T00:08:24;1.50;;;1.27;;
33579;SDS011;19909;43.644;-79.438;2023-07-31T00:10:51;1.98;;;1.20;;
33579;SDS011;19909;43.644;-79.438;2023-07-31T00:13:18;1.27;;;1.10;;
33579;SDS011;19909;43.644;-79.438;2023-07-31T00:15:44;1.73;;;1.00;;
33579;SDS011;19909;43.644;-79.438;2023-07-31T00:18:10;1.23;;;1.00;;
33579;SDS011;19909;43.644;-79.438;2023-07-31T00:20:36;1.55;;;1.20;;
33579;SDS011;19909;43.644;-79.438;2023-07-31T00:23:02;1.50;;;1.20;;
33579;SDS011;19909;43.644;-79.438;2023-07-31T00:25:28;3.08;;;1.63;;
33579;SDS011;19909;43.644;-79.438;2023-07-31T00:27:55;3.30;;;1.80;;
33579;SDS011;19909;43.644;-79.438;2023-07-31T00:30:21;1.98;;;1.60;;
33579;SDS011;19909;43.644;-79.438;2023-07-31T00:32:47;1.85;;;1.75;;
33579;SDS011;19909;43.644;-79.438;2023-07-31T00:35:13;2.33;;;1.73;;
33579;SDS011;19909;43.644;-79.438;2023-07-31T00:37:40;3.20;;;1.65;;
33579;SDS011;19909;43.644;-79.438;2023-07-31T00:40:06;3.80;;;1.98;;
33579;SDS011;19909;43.644;-79.438;2023-07-31T00:42:33;2.17;;;1.98;;
33579;SDS011;19909;43.644;-79.438;2023-07-31T00:44:59;3.25;;;2.55;;
33579;SDS011;19909;43.644;-79.438;2023-07-31T00:47:25;2.13;;;1.92;;
33579;SDS011;19909;43.644;-79.438;2023-07-31T00:49:52;1.88;;;1.65;;
33579;SDS011;19909;43.644;-79.438;2023-07-31T00:52:18;2.00;;;1.80;;
33579;SDS011;19909;43.644;-79.438;2023-07-31T00:54:44;2.20;;;2.00;;
33579;SDS011;19909;43.644;-79.438;2023-07-31T00:57:11;1.52;;;1.42;;
33579;SDS011;19909;43.644;-79.438;2023-07-31T00:59:37;4.45;;;2.28;;
33579;SDS011;19909;43.644;-79.438;2023-07-31T01:02:03;2.13;;;1.70;;
33579;SDS011;19909;43.644;-79.438;2023-07-31T01:04:30;2.08;;;1.77;;
33579;SDS011;19909;43.644;-79.438;2023-07-31T01:10:13;3.78;;;1.63;;
33579;SDS011;19909;43.644;-79.438;2023-07-31T01:12:44;1.80;;;1.60;;
33579;SDS011;19909;43.644;-79.438;2023-07-31T01:15:11;2.38;;;1.85;;
33579;SDS011;19909;43.644;-79.438;2023-07-31T01:17:40;1.65;;;1.30;;
33579;SDS011;19909;43.644;-79.438;2023-07-31T01:20:11;1.70;;;1.60;;
33579;SDS011;19909;43.644;-79.438;2023-07-31T01:25:25;1.63;;;1.42;;
33579;SDS011;19909;43.644;-79.438;2023-07-31T01:28:20;1.77;;;1.65;;
33579;SDS011;19909;43.644;-79.438;2023-07-31T01:30:52;2.10;;;1.75;;
33579;SDS011;19909;43.644;-79.438;2023-07-31T01:33:23;2.08;;;1.40;;
33579;SDS011;19909;43.644;-79.438;2023-07-31T01:35:49;1.95;;;1.77;;
33579;SDS011;19909;43.644;-79.438;2023-07-31T01:38:15;3.60;;;1.60;;
33579;SDS011;19909;43.644;-79.438;2023-07-31T01:40:50;3.10;;;1.90;;
33579;SDS011;19909;43.644;-79.438;2023-07-31T01:43:18;3.55;;;2.08;;
33579;SDS011;19909;43.644;-79.438;2023-07-31T01:45:44;2.17;;;1.83;;
33579;SDS011;19909;43.644;-79.438;2023-07-31T01:48:10;2.03;;;1.50;;
33579;SDS011;19909;43.644;-79.438;2023-07-31T01:50:37;2.88;;;1.85;;
33579;SDS011;19909;43.644;-79.438;2023-07-31T01:53:03;3.25;;;1.83;;
33579;SDS011;19909;43.644;-79.438;2023-07-31T01:55:29;2.53;;;1.77;;
33579;SDS011;19909;43.644;-79.438;2023-07-31T01:57:55;2.00;;;1.73;;
33579;SDS011;19909;43.644;-79.438;2023-07-31T02:00:21;2.25;;;1.50;;
33579;SDS011;19909;43.644;-79.438;2023-07-31T02:02:47;2.95;;;2.08;;
33579;SDS011;19909;43.644;-79.438;2023-07-31T02:05:14;3.25;;;1.75;;
33579;SDS011;19909;43.644;-79.438;2023-07-31T02:07:40;2.45;;;1.67;;
33579;SDS011;19909;43.644;-79.438;2023-07-31T02:10:06;4.00;;;2.28;;
33579;SDS011;19909;43.644;-79.438;2023-07-31T02:12:32;2.30;;;2.00;;
33579;SDS011;19909;43.644;-79.438;2023-07-31T02:14:59;4.90;;;1.90;;
33579;SDS011;19909;43.644;-79.438;2023-07-31T02:17:25;1.85;;;1.70;;
33579;SDS011;19909;43.644;-79.438;2023-07-31T02:19:51;2.97;;;2.00;;
33579;SDS011;19909;43.644;-79.438;2023-07-31T02:22:17;3.92;;;1.90;;
33579;SDS011;19909;43.644;-79.438;2023-07-31T02:24:43;3.20;;;2.05;;
33579;SDS011;19909;43.644;-79.438;2023-07-31T02:27:09;3.97;;;2.38;;
33579;SDS011;19909;43.644;-79.438;2023-07-31T02:29:35;6.28;;;2.20;;
33579;SDS011;19909;43.644;-79.438;2023-07-31T02:32:01;3.65;;;2.42;;
33579;SDS011;19909;43.644;-79.438;2023-07-31T02:34:28;2.65;;;2.20;;
33579;SDS011;19909;43.644;-79.438;2023-07-31T02:36:54;3.25;;;2.15;;
33579;SDS011;19909;43.644;-79.438;2023-07-31T02:39:20;6.32;;;2.85;;
33579;SDS011;19909;43.644;-79.438;2023-07-31T02:41:46;3.90;;;2.90;;
33579;SDS011;19909;43.644;-79.438;2023-07-31T02:44:12;3.40;;;2.80;;
33579;SDS011;19909;43.644;-79.438;2023-07-31T02:46:39;4.22;;;3.20;;
33579;SDS011;19909;43.644;-79.438;2023-07-31T02:49:05;6.00;;;2.80;;
33579;SDS011;19909;43.644;-79.438;2023-07-31T02:51:32;4.03;;;3.00;;
33579;SDS011;19909;43.644;-79.438;2023-07-31T02:53:58;4.57;;;2.60;;
33579;SDS011;19909;43.644;-79.438;2023-07-31T02:56:24;4.05;;;2.50;;
33579;SDS011;19909;43.644;-79.438;2023-07-31T02:58:50;3.70;;;2.65;;
33579;SDS011;19909;43.644;-79.438;2023-07-31T03:01:16;5.07;;;2.67;;
33579;SDS011;19909;43.644;-79.438;2023-07-31T03:03:42;5.38;;;2.45;;
33579;SDS011;19909;43.644;-79.438;2023-07-31T03:06:09;2.60;;;2.20;;
33579;SDS011;19909;43.644;-79.438;2023-07-31T03:08:35;3.38;;;2.50;;
33579;SDS011;19909;43.644;-79.438;2023-07-31T03:11:01;4.22;;;3.55;;
33579;SDS011;19909;43.644;-79.438;2023-07-31T03:13:27;5.07;;;2.60;;
33579;SDS011;19909;43.644;-79.438;2023-07-31T03:15:53;3.25;;;2.80;;
33579;SDS011;19909;43.644;-79.438;2023-07-31T03:18:19;3.15;;;2.67;;
33579;SDS011;19909;43.644;-79.438;2023-07-31T03:20:45;4.50;;;2.55;;
33579;SDS011;19909;43.644;-79.438;2023-07-31T03:23:11;3.03;;;2.70;;
33579;SDS011;19909;43.644;-79.438;2023-07-31T03:25:38;3.50;;;2.17;;
33579;SDS011;19909;43.644;-79.438;2023-07-31T03:28:04;3.58;;;2.33;;
33579;SDS011;19909;43.644;-79.438;2023-07-31T03:30:31;4.55;;;2.53;;
33579;SDS011;19909;43.644;-79.438;2023-07-31T03:32:57;8.13;;;2.53;;
33579;SDS011;19909;43.644;-79.438;2023-07-31T03:35:23;3.60;;;2.38;;
33579;SDS011;19909;43.644;-79.438;2023-07-31T03:37:49;4.38;;;2.70;;
33579;SDS011;19909;43.644;-79.438;2023-07-31T03:40:15;5.95;;;2.55;;
33579;SDS011;19909;43.644;-79.438;2023-07-31T03:42:41;5.82;;;2.75;;
33579;SDS011;19909;43.644;-79.438;2023-07-31T03:45:08;5.22;;;2.70;;
33579;SDS011;19909;43.644;-79.438;2023-07-31T03:47:34;4.88;;;2.38;;
33579;SDS011;19909;43.644;-79.438;2023-07-31T03:50:00;4.97;;;2.70;;
33579;SDS011;19909;43.644;-79.438;2023-07-31T03:52:27;6.05;;;2.42;;
33579;SDS011;19909;43.644;-79.438;2023-07-31T03:54:53;4.00;;;2.75;;
33579;SDS011;19909;43.644;-79.438;2023-07-31T03:57:19;6.82;;;3.00;;
33579;SDS011;19909;43.644;-79.438;2023-07-31T03:59:45;3.58;;;2.53;;
33579;SDS011;19909;43.644;-79.438;2023-07-31T04:02:11;4.13;;;3.10;;
33579;SDS011;19909;43.644;-79.438;2023-07-31T04:04:39;4.50;;;2.72;;
33579;SDS011;19909;43.644;-79.438;2023-07-31T04:07:05;3.70;;;2.25;;
33579;SDS011;19909;43.644;-79.438;2023-07-31T04:09:31;5.38;;;2.70;;
33579;SDS011;19909;43.644;-79.438;2023-07-31T04:11:57;4.57;;;2.55;;
33579;SDS011;19909;43.644;-79.438;2023-07-31T04:14:23;4.43;;;2.35;;
33579;SDS011;19909;43.644;-79.438;2023-07-31T04:16:50;3.17;;;2.88;;
33579;SDS011;19909;43.644;-79.438;2023-07-31T04:19:16;5.57;;;2.50;;
33579;SDS011;19909;43.644;-79.438;2023-07-31T04:21:42;6.72;;;2.55;;
33579;SDS011;19909;43.644;-79.438;2023-07-31T04:24:08;4.38;;;2.60;;
33579;SDS011;19909;43.644;-79.438;2023-07-31T04:26:35;5.05;;;2.42;;
33579;SDS011;19909;43.644;-79.438;2023-07-31T04:29:01;6.15;;;3.08;;
33579;SDS011;19909;43.644;-79.438;2023-07-31T04:31:27;5.88;;;2.28;;
33579;SDS011;19909;43.644;-79.438;2023-07-31T04:33:53;4.35;;;2.55;;
33579;SDS011;19909;43.644;-79.438;2023-07-31T04:36:19;5.85;;;3.05;;
33579;SDS011;19909;43.644;-79.438;2023-07-31T04:38:45;4.55;;;2.25;;
33579;SDS011;19909;43.644;-79.438;2023-07-31T04:41:11;5.25;;;2.55;;
33579;SDS011;19909;43.644;-79.438;2023-07-31T04:43:40;3.10;;;2.30;;
33579;SDS011;19909;43.644;-79.438;2023-07-31T04:46:06;2.95;;;1.75;;
33579;SDS011;19909;43.644;-79.438;2023-07-31T04:48:33;5.25;;;2.90;;
33579;SDS011;19909;43.644;-79.438;2023-07-31T04:50:59;8.75;;;2.65;;
33579;SDS011;19909;43.644;-79.438;2023-07-31T04:53:25;5.22;;;2.55;;
33579;SDS011;19909;43.644;-79.438;2023-07-31T04:55:51;6.28;;;2.35;;
33579;SDS011;19909;43.644;-79.438;2023-07-31T04:58:17;8.93;;;2.50;;
33579;SDS011;19909;43.644;-79.438;2023-07-31T05:00:43;7.32;;;2.70;;
33579;SDS011;19909;43.644;-79.438;2023-07-31T05:03:10;4.72;;;2.20;;
33579;SDS011;19909;43.644;-79.438;2023-07-31T05:05:36;3.85;;;2.20;;
33579;SDS011;19909;43.644;-79.438;2023-07-31T05:08:02;6.15;;;2.45;;
33579;SDS011;19909;43.644;-79.438;2023-07-31T05:10:29;5.68;;;2.22;;
33579;SDS011;19909;43.644;-79.438;2023-07-31T05:12:55;3.08;;;2.10;;
33579;SDS011;19909;43.644;-79.438;2023-07-31T05:15:21;7.30;;;2.60;;
33579;SDS011;19909;43.644;-79.438;2023-07-31T05:17:47;8.75;;;2.28;;
33579;SDS011;19909;43.644;-79.438;2023-07-31T05:20:13;6.82;;;2.40;;
33579;SDS011;19909;43.644;-79.438;2023-07-31T05:22:40;4.57;;;2.42;;
33579;SDS011;19909;43.644;-79.438;2023-07-31T05:25:06;8.65;;;2.67;;
33579;SDS011;19909;43.644;-79.438;2023-07-31T05:27:32;5.35;;;2.20;;
33579;SDS011;19909;43.644;-79.438;2023-07-31T05:29:59;5.10;;;2.92;;
33579;SDS011;19909;43.644;-79.438;2023-07-31T05:32:25;7.47;;;2.40;;
33579;SDS011;19909;43.644;-79.438;2023-07-31T05:34:51;7.10;;;2.53;;
33579;SDS011;19909;43.644;-79.438;2023-07-31T05:37:18;6.82;;;2.38;;
33579;SDS011;19909;43.644;-79.438;2023-07-31T05:39:45;5.35;;;2.55;;
33579;SDS011;19909;43.644;-79.438;2023-07-31T05:42:11;8.50;;;2.90;;
33579;SDS011;19909;43.644;-79.438;2023-07-31T05:44:37;11.63;;;2.45;;
33579;SDS011;19909;43.644;-79.438;2023-07-31T05:47:03;6.72;;;2.05;;
33579;SDS011;19909;43.644;-79.438;2023-07-31T05:49:29;6.40;;;2.55;;
33579;SDS011;19909;43.644;-79.438;2023-07-31T05:51:56;5.88;;;2.10;;
33579;SDS011;19909;43.644;-79.438;2023-07-31T05:54:22;8.32;;;2.55;;
33579;SDS011;19909;43.644;-79.438;2023-07-31T05:56:48;9.32;;;2.65;;
33579;SDS011;19909;43.644;-79.438;2023-07-31T05:59:15;5.35;;;2.40;;
33579;SDS011;19909;43.644;-79.438;2023-07-31T06:01:42;8.10;;;2.80;;
33579;SDS011;19909;43.644;-79.438;2023-07-31T06:04:08;3.83;;;2.38;;
33579;SDS011;19909;43.644;-79.438;2023-07-31T06:06:34;9.43;;;2.88;;
33579;SDS011;19909;43.644;-79.438;2023-07-31T06:15:45;6.35;;;2.95;;
33579;SDS011;19909;43.644;-79.438;2023-07-31T06:18:11;8.82;;;2.67;;
33579;SDS011;19909;43.644;-79.438;2023-07-31T06:20:37;5.30;;;2.30;;
33579;SDS011;19909;43.644;-79.438;2023-07-31T06:23:05;7.82;;;2.38;;
33579;SDS011;19909;43.644;-79.438;2023-07-31T06:25:31;10.18;;;2.88;;
33579;SDS011;19909;43.644;-79.438;2023-07-31T06:27:58;7.78;;;2.75;;
33579;SDS011;19909;43.644;-79.438;2023-07-31T06:30:24;7.93;;;1.88;;
33579;SDS011;19909;43.644;-79.438;2023-07-31T06:32:50;6.22;;;2.20;;
33579;SDS011;19909;43.644;-79.438;2023-07-31T06:35:16;4.97;;;2.03;;
33579;SDS011;19909;43.644;-79.438;2023-07-31T06:37:42;9.38;;;1.92;;
33579;SDS011;19909;43.644;-79.438;2023-07-31T06:40:09;6.43;;;1.85;;
33579;SDS011;19909;43.644;-79.438;2023-07-31T06:42:36;11.18;;;2.85;;
33579;SDS011;19909;43.644;-79.438;2023-07-31T06:45:02;8.77;;;2.13;;
33579;SDS011;19909;43.644;-79.438;2023-07-31T06:47:29;6.53;;;1.92;;
33579;SDS011;19909;43.644;-79.438;2023-07-31T06:49:55;8.35;;;2.58;;
33579;SDS011;19909;43.644;-79.438;2023-07-31T06:52:21;11.10;;;2.08;;
33579;SDS011;19909;43.644;-79.438;2023-07-31T06:55:21;5.70;;;2.22;;
33579;SDS011;19909;43.644;-79.438;2023-07-31T06:57:47;5.20;;;2.22;;
33579;SDS011;19909;43.644;-79.438;2023-07-31T07:00:15;4.68;;;2.00;;
33579;SDS011;19909;43.644;-79.438;2023-07-31T07:02:41;4.93;;;1.90;;
33579;SDS011;19909;43.644;-79.438;2023-07-31T07:05:08;5.75;;;2.20;;
33579;SDS011;19909;43.644;-79.438;2023-07-31T07:07:34;11.25;;;3.00;;
33579;SDS011;19909;43.644;-79.438;2023-07-31T07:10:01;10.00;;;2.47;;
33579;SDS011;19909;43.644;-79.438;2023-07-31T07:12:29;6.63;;;1.90;;
33579;SDS011;19909;43.644;-79.438;2023-07-31T07:14:56;9.93;;;2.45;;
33579;SDS011;19909;43.644;-79.438;2023-07-31T07:17:23;8.55;;;2.08;;
33579;SDS011;19909;43.644;-79.438;2023-07-31T07:19:50;8.02;;;2.17;;
33579;SDS011;19909;43.644;-79.438;2023-07-31T07:22:16;8.80;;;2.28;;
33579;SDS011;19909;43.644;-79.438;2023-07-31T07:24:42;8.73;;;2.53;;
33579;SDS011;19909;43.644;-79.438;2023-07-31T07:27:08;10.15;;;2.85;;
33579;SDS011;19909;43.644;-79.438;2023-07-31T07:29:35;5.20;;;2.03;;
33579;SDS011;19909;43.644;-79.438;2023-07-31T07:32:01;5.43;;;1.73;;
33579;SDS011;19909;43.644;-79.438;2023-07-31T07:34:27;7.57;;;2.40;;
33579;SDS011;19909;43.644;-79.438;2023-07-31T07:36:54;11.80;;;2.53;;
33579;SDS011;19909;43.644;-79.438;2023-07-31T07:39:20;6.03;;;2.20;;
33579;SDS011;19909;43.644;-79.438;2023-07-31T07:41:46;7.13;;;2.10;;
33579;SDS011;19909;43.644;-79.438;2023-07-31T07:44:13;6.68;;;2.35;;
33579;SDS011;19909;43.644;-79.438;2023-07-31T07:46:39;3.83;;;1.90;;
33579;SDS011;19909;43.644;-79.438;2023-07-31T07:49:05;6.93;;;1.75;;
33579;SDS011;19909;43.644;-79.438;2023-07-31T07:51:32;7.18;;;1.88;;
33579;SDS011;19909;43.644;-79.438;2023-07-31T07:53:58;4.63;;;1.90;;
33579;SDS011;19909;43.644;-79.438;2023-07-31T07:56:25;6.55;;;2.20;;
33579;SDS011;19909;43.644;-79.438;2023-07-31T07:58:52;8.88;;;2.00;;
33579;SDS011;19909;43.644;-79.438;2023-07-31T08:01:19;4.00;;;2.00;;
33579;SDS011;19909;43.644;-79.438;2023-07-31T08:03:46;7.45;;;2.65;;
33579;SDS011;19909;43.644;-79.438;2023-07-31T08:06:12;3.03;;;1.80;;
33579;SDS011;19909;43.644;-79.438;2023-07-31T08:08:39;5.75;;;2.28;;
33579;SDS011;19909;43.644;-79.438;2023-07-31T08:11:06;6.35;;;1.90;;
33579;SDS011;19909;43.644;-79.438;2023-07-31T08:13:33;5.00;;;2.10;;
33579;SDS011;19909;43.644;-79.438;2023-07-31T08:15:59;8.88;;;1.90;;
33579;SDS011;19909;43.644;-79.438;2023-07-31T08:18:25;5.35;;;2.13;;
33579;SDS011;19909;43.644;-79.438;2023-07-31T08:20:51;4.25;;;1.95;;
33579;SDS011;19909;43.644;-79.438;2023-07-31T08:23:17;6.20;;;2.10;;
33579;SDS011;19909;43.644;-79.438;2023-07-31T08:25:44;4.40;;;2.00;;
33579;SDS011;19909;43.644;-79.438;2023-07-31T08:28:11;3.97;;;2.20;;
33579;SDS011;19909;43.644;-79.438;2023-07-31T08:30:37;3.55;;;1.90;;
33579;SDS011;19909;43.644;-79.438;2023-07-31T08:33:03;2.80;;;2.10;;
33579;SDS011;19909;43.644;-79.438;2023-07-31T08:35:30;6.20;;;2.22;;
33579;SDS011;19909;43.644;-79.438;2023-07-31T08:37:56;7.88;;;2.05;;
33579;SDS011;19909;43.644;-79.438;2023-07-31T08:40:22;4.05;;;1.95;;
33579;SDS011;19909;43.644;-79.438;2023-07-31T08:42:49;13.52;;;3.22;;
33579;SDS011;19909;43.644;-79.438;2023-07-31T08:45:19;6.43;;;2.17;;
33579;SDS011;19909;43.644;-79.438;2023-07-31T08:47:47;6.28;;;2.13;;
33579;SDS011;19909;43.644;-79.438;2023-07-31T08:50:14;3.70;;;2.15;;
33579;SDS011;19909;43.644;-79.438;2023-07-31T08:52:42;7.50;;;1.95;;
33579;SDS011;19909;43.644;-79.438;2023-07-31T08:55:08;7.55;;;2.25;;
33579;SDS011;19909;43.644;-79.438;2023-07-31T08:57:36;4.13;;;1.92;;
33579;SDS011;19909;43.644;-79.438;2023-07-31T09:00:03;6.00;;;2.40;;
33579;SDS011;19909;43.644;-79.438;2023-07-31T09:02:34;4.75;;;1.98;;
33579;SDS011;19909;43.644;-79.438;2023-07-31T09:05:17;8.43;;;2.20;;
33579;SDS011;19909;43.644;-79.438;2023-07-31T09:07:45;7.47;;;2.25;;
33579;SDS011;19909;43.644;-79.438;2023-07-31T09:10:13;6.53;;;2.40;;
33579;SDS011;19909;43.644;-79.438;2023-07-31T09:12:39;5.22;;;1.88;;
33579;SDS011;19909;43.644;-79.438;2023-07-31T09:15:06;4.47;;;2.53;;
33579;SDS011;19909;43.644;-79.438;2023-07-31T09:17:34;4.85;;;2.08;;
33579;SDS011;19909;43.644;-79.438;2023-07-31T09:22:41;5.47;;;1.90;;
33579;SDS011;19909;43.644;-79.438;2023-07-31T09:30:14;2.38;;;1.52;;
33579;SDS011;19909;43.644;-79.438;2023-07-31T09:32:40;4.50;;;1.70;;
33579;SDS011;19909;43.644;-79.438;2023-07-31T09:35:27;5.10;;;2.28;;
33579;SDS011;19909;43.644;-79.438;2023-07-31T09:38:04;3.33;;;1.98;;
33579;SDS011;19909;43.644;-79.438;2023-07-31T09:40:33;5.85;;;2.20;;
33579;SDS011;19909;43.644;-79.438;2023-07-31T09:43:01;4.50;;;2.20;;
33579;SDS011;19909;43.644;-79.438;2023-07-31T09:45:29;4.28;;;2.75;;
33579;SDS011;19909;43.644;-79.438;2023-07-31T09:47:58;8.52;;;2.13;;
33579;SDS011;19909;43.644;-79.438;2023-07-31T09:50:24;3.05;;;2.20;;
33579;SDS011;19909;43.644;-79.438;2023-07-31T09:52:51;7.00;;;2.05;;
33579;SDS011;19909;43.644;-79.438;2023-07-31T09:55:18;5.38;;;2.20;;
33579;SDS011;19909;43.644;-79.438;2023-07-31T09:57:48;5.40;;;2.15;;
33579;SDS011;19909;43.644;-79.438;2023-07-31T10:00:16;4.63;;;2.10;;
33579;SDS011;19909;43.644;-79.438;2023-07-31T10:02:46;4.20;;;2.13;;
33579;SDS011;19909;43.644;-79.438;2023-07-31T10:05:13;8.65;;;2.20;;
33579;SDS011;19909;43.644;-79.438;2023-07-31T10:07:45;6.55;;;1.98;;
33579;SDS011;19909;43.644;-79.438;2023-07-31T10:10:24;6.07;;;2.83;;
33579;SDS011;19909;43.644;-79.438;2023-07-31T10:12:52;5.07;;;1.98;;
33579;SDS011;19909;43.644;-79.438;2023-07-31T10:15:19;7.18;;;2.47;;
33579;SDS011;19909;43.644;-79.438;2023-07-31T10:17:47;6.85;;;1.90;;
33579;SDS011;19909;43.644;-79.438;2023-07-31T10:20:14;4.22;;;2.03;;
33579;SDS011;19909;43.644;-79.438;2023-07-31T10:22:42;4.03;;;2.03;;
33579;SDS011;19909;43.644;-79.438;2023-07-31T10:25:11;5.22;;;2.10;;
33579;SDS011;19909;43.644;-79.438;2023-07-31T10:27:38;7.15;;;2.08;;
33579;SDS011;19909;43.644;-79.438;2023-07-31T10:30:05;5.10;;;2.40;;
33579;SDS011;19909;43.644;-79.438;2023-07-31T10:32:34;3.15;;;2.00;;
33579;SDS011;19909;43.644;-79.438;2023-07-31T10:35:03;3.35;;;1.98;;
33579;SDS011;19909;43.644;-79.438;2023-07-31T10:40:09;4.97;;;2.00;;
33579;SDS011;19909;43.644;-79.438;2023-07-31T10:42:54;4.18;;;2.55;;
33579;SDS011;19909;43.644;-79.438;2023-07-31T10:45:25;2.55;;;2.00;;
33579;SDS011;19909;43.644;-79.438;2023-07-31T10:47:57;9.75;;;2.10;;
33579;SDS011;19909;43.644;-79.438;2023-07-31T10:50:25;4.18;;;2.55;;
33579;SDS011;19909;43.644;-79.438;2023-07-31T10:52:53;5.07;;;2.38;;
33579;SDS011;19909;43.644;-79.438;2023-07-31T11:00:39;4.65;;;2.22;;
33579;SDS011;19909;43.644;-79.438;2023-07-31T11:03:09;3.47;;;2.60;;
33579;SDS011;19909;43.644;-79.438;2023-07-31T11:05:40;4.72;;;2.22;;
33579;SDS011;19909;43.644;-79.438;2023-07-31T11:08:50;7.68;;;2.45;;
33579;SDS011;19909;43.644;-79.438;2023-07-31T11:13:27;7.07;;;2.65;;
33579;SDS011;19909;43.644;-79.438;2023-07-31T11:15:58;3.55;;;2.70;;
33579;SDS011;19909;43.644;-79.438;2023-07-31T11:18:24;3.92;;;2.38;;
33579;SDS011;19909;43.644;-79.438;2023-07-31T11:20:52;4.90;;;2.30;;
33579;SDS011;19909;43.644;-79.438;2023-07-31T11:23:19;4.55;;;2.75;;
33579;SDS011;19909;43.644;-79.438;2023-07-31T11:25:45;5.75;;;2.40;;
33579;SDS011;19909;43.644;-79.438;2023-07-31T11:28:13;7.35;;;3.17;;
33579;SDS011;19909;43.644;-79.438;2023-07-31T11:30:41;8.63;;;3.13;;
33579;SDS011;19909;43.644;-79.438;2023-07-31T11:33:08;6.63;;;3.10;;
33579;SDS011;19909;43.644;-79.438;2023-07-31T11:35:40;9.35;;;3.55;;
33579;SDS011;19909;43.644;-79.438;2023-07-31T11:38:10;8.20;;;3.33;;
33579;SDS011;19909;43.644;-79.438;2023-07-31T11:40:41;5.93;;;3.10;;
33579;SDS011;19909;43.644;-79.438;2023-07-31T11:43:08;6.60;;;3.00;;
33579;SDS011;19909;43.644;-79.438;2023-07-31T11:45:34;8.63;;;3.60;;
33579;SDS011;19909;43.644;-79.438;2023-07-31T11:48:01;4.85;;;2.65;;
33579;SDS011;19909;43.644;-79.438;2023-07-31T11:50:28;4.72;;;3.00;;
33579;SDS011;19909;43.644;-79.438;2023-07-31T11:52:59;7.60;;;2.90;;
33579;SDS011;19909;43.644;-79.438;2023-07-31T11:55:29;6.30;;;2.97;;
33579;SDS011;19909;43.644;-79.438;2023-07-31T11:57:56;7.88;;;2.88;;
33579;SDS011;19909;43.644;-79.438;2023-07-31T12:00:23;7.05;;;3.22;;
33579;SDS011;19909;43.644;-79.438;2023-07-31T12:02:51;3.42;;;2.70;;
33579;SDS011;19909;43.644;-79.438;2023-07-31T12:05:18;6.78;;;3.03;;
33579;SDS011;19909;43.644;-79.438;2023-07-31T12:10:11;10.23;;;3.78;;
33579;SDS011;19909;43.644;-79.438;2023-07-31T12:12:55;5.90;;;2.88;;
33579;SDS011;19909;43.644;-79.438;2023-07-31T12:15:33;7.18;;;2.85;;
33579;SDS011;19909;43.644;-79.438;2023-07-31T12:18:03;5.90;;;2.80;;
33579;SDS011;19909;43.644;-79.438;2023-07-31T12:20:30;3.53;;;2.22;;
33579;SDS011;19909;43.644;-79.438;2023-07-31T12:22:58;2.88;;;2.22;;
33579;SDS011;19909;43.644;-79.438;2023-07-31T12:25:31;7.78;;;2.65;;
33579;SDS011;19909;43.644;-79.438;2023-07-31T12:28:03;4.07;;;2.85;;
33579;SDS011;19909;43.644;-79.438;2023-07-31T12:33:07;6.15;;;3.00;;
33579;SDS011;19909;43.644;-79.438;2023-07-31T12:35:38;4.10;;;3.13;;
33579;SDS011;19909;43.644;-79.438;2023-07-31T12:38:08;4.88;;;3.25;;
33579;SDS011;19909;43.644;-79.438;2023-07-31T12:40:36;5.35;;;3.72;;
33579;SDS011;19909;43.644;-79.438;2023-07-31T12:43:06;4.70;;;2.70;;
33579;SDS011;19909;43.644;-79.438;2023-07-31T12:45:33;6.05;;;3.60;;
33579;SDS011;19909;43.644;-79.438;2023-07-31T12:48:00;5.95;;;3.45;;
33579;SDS011;19909;43.644;-79.438;2023-07-31T12:50:27;5.70;;;3.45;;
33579;SDS011;19909;43.644;-79.438;2023-07-31T12:52:53;4.40;;;3.15;;
33579;SDS011;19909;43.644;-79.438;2023-07-31T12:55:20;4.60;;;3.20;;
33579;SDS011;19909;43.644;-79.438;2023-07-31T12:57:47;4.00;;;3.42;;
33579;SDS011;19909;43.644;-79.438;2023-07-31T13:00:14;6.32;;;3.55;;
33579;SDS011;19909;43.644;-79.438;2023-07-31T13:02:40;4.00;;;3.40;;
33579;SDS011;19909;43.644;-79.438;2023-07-31T13:05:06;5.85;;;3.53;;
33579;SDS011;19909;43.644;-79.438;2023-07-31T13:07:33;4.20;;;2.85;;
33579;SDS011;19909;43.644;-79.438;2023-07-31T13:09:59;5.68;;;2.97;;
33579;SDS011;19909;43.644;-79.438;2023-07-31T13:12:25;5.32;;;3.28;;
33579;SDS011;19909;43.644;-79.438;2023-07-31T13:14:51;4.07;;;3.05;;
33579;SDS011;19909;43.644;-79.438;2023-07-31T13:17:17;4.88;;;3.20;;
33579;SDS011;19909;43.644;-79.438;2023-07-31T13:19:44;8.68;;;3.78;;
33579;SDS011;19909;43.644;-79.438;2023-07-31T13:22:10;6.95;;;3.65;;
33579;SDS011;19909;43.644;-79.438;2023-07-31T13:24:36;4.90;;;3.63;;
33579;SDS011;19909;43.644;-79.438;2023-07-31T13:27:02;3.53;;;3.17;;
33579;SDS011;19909;43.644;-79.438;2023-07-31T13:29:29;4.50;;;2.95;;
33579;SDS011;19909;43.644;-79.438;2023-07-31T13:31:55;3.83;;;3.20;;
33579;SDS011;19909;43.644;-79.438;2023-07-31T13:34:21;3.70;;;3.33;;
33579;SDS011;19909;43.644;-79.438;2023-07-31T13:36:47;4.72;;;3.22;;
33579;SDS011;19909;43.644;-79.438;2023-07-31T13:39:13;7.95;;;3.67;;
33579;SDS011;19909;43.644;-79.438;2023-07-31T13:41:40;3.17;;;2.72;;
33579;SDS011;19909;43.644;-79.438;2023-07-31T13:44:06;4.88;;;3.20;;
33579;SDS011;19909;43.644;-79.438;2023-07-31T13:46:32;7.63;;;3.70;;
33579;SDS011;19909;43.644;-79.438;2023-07-31T13:48:59;4.32;;;2.90;;
33579;SDS011;19909;43.644;-79.438;2023-07-31T13:51:26;5.00;;;2.92;;
33579;SDS011;19909;43.644;-79.438;2023-07-31T13:53:53;4.88;;;2.90;;
33579;SDS011;19909;43.644;-79.438;2023-07-31T13:56:19;6.18;;;3.58;;
33579;SDS011;19909;43.644;-79.438;2023-07-31T13:58:45;6.88;;;4.07;;
33579;SDS011;19909;43.644;-79.438;2023-07-31T14:01:12;5.55;;;2.90;;
33579;SDS011;19909;43.644;-79.438;2023-07-31T14:03:38;5.57;;;3.10;;
33579;SDS011;19909;43.644;-79.438;2023-07-31T14:06:04;5.38;;;3.22;;
33579;SDS011;19909;43.644;-79.438;2023-07-31T14:08:30;4.68;;;2.70;;
33579;SDS011;19909;43.644;-79.438;2023-07-31T14:10:56;3.40;;;2.80;;
33579;SDS011;19909;43.644;-79.438;2023-07-31T14:13:22;3.25;;;2.95;;
33579;SDS011;19909;43.644;-79.438;2023-07-31T14:15:49;3.78;;;2.88;;
33579;SDS011;19909;43.644;-79.438;2023-07-31T14:18:15;3.47;;;2.97;;
33579;SDS011;19909;43.644;-79.438;2023-07-31T14:20:41;3.50;;;2.72;;
33579;SDS011;19909;43.644;-79.438;2023-07-31T14:23:07;3.45;;;2.65;;
33579;SDS011;19909;43.644;-79.438;2023-07-31T14:25:33;4.13;;;2.85;;
33579;SDS011;19909;43.644;-79.438;2023-07-31T14:27:59;3.47;;;3.10;;
33579;SDS011;19909;43.644;-79.438;2023-07-31T14:30:25;5.55;;;3.53;;
33579;SDS011;19909;43.644;-79.438;2023-07-31T14:32:51;3.88;;;2.72;;
33579;SDS011;19909;43.644;-79.438;2023-07-31T14:35:18;7.38;;;3.50;;
33579;SDS011;19909;43.644;-79.438;2023-07-31T14:37:44;4.18;;;3.22;;
33579;SDS011;19909;43.644;-79.438;2023-07-31T14:40:11;2.90;;;2.60;;
33579;SDS011;19909;43.644;-79.438;2023-07-31T14:42:38;4.82;;;2.92;;
33579;SDS011;19909;43.644;-79.438;2023-07-31T14:45:05;5.40;;;3.13;;
33579;SDS011;19909;43.644;-79.438;2023-07-31T14:47:32;3.78;;;2.83;;
33579;SDS011;19909;43.644;-79.438;2023-07-31T14:49:59;3.95;;;3.00;;
33579;SDS011;19909;43.644;-79.438;2023-07-31T14:52:25;3.30;;;2.97;;
33579;SDS011;19909;43.644;-79.438;2023-07-31T14:54:52;3.47;;;3.17;;
33579;SDS011;19909;43.644;-79.438;2023-07-31T14:57:18;4.25;;;2.95;;